Tiempo atmosférico en la estación meteorológica de Zafra, Badajoz (433 m.)



Fecha
DESCASC
Temp. máxima en grados centígrados (hora)
DESCASC
Temp. mínima en grados centígrados (hora)
DESCASC
Temp. media en grados centígrados
DESCASC
Racha de viento máxima en m/sg (hora)
DESCASC
Velocidad máxima media en intervalos de 10 minutos(hora)
DESCASC
Precipitaciones diarias en mm
DESCASC
Precipitaciones de 00:00 a 06:00 en mm
DESCASC
Precipitaciones de 06:00 a 12:00 en mm
DESCASC
Precipitaciones de 12:00 a 18:00 en mm
DESCASC
Precipitaciones de 18:00 a 24:00 en mm
DESCASC
25-04-2019 15.3 (14:50) 8.9 (23:40) 12.1 16.39 (00:30) 7.78 (15:40) 4.2 3.2 0.6 0.4 0
24-04-2019 15.4 (19:20) 5.6 (02:10) 10.5 18.61 (12:50) 8.33 (16:20) 11.6 0.2 1 4.4 6
23-04-2019 12.9 (00:00) 6.5 (22:10) 9.7 15 (13:00) 8.61 (13:10) 14.2 4.4 0.4 5.4 4
22-04-2019 21.1 (15:50) 7.6 (00:00) 14.4 11.39 (15:50) 5.56 (15:30) 0 0 0 0 0
21-04-2019 19.6 (16:30) 5.4 (00:00) 12.5 8.89 (16:30) 5.28 (16:30) 0 0 0 0 0
20-04-2019 16.5 (19:20) 7.3 (00:00) 11.9 13.06 (20:20) 6.67 (22:40) 4 0.2 3.6 0.2 0
19-04-2019 16.1 (15:50) 9 (00:00) 12.6 6.67 (15:10) 4.72 (15:10) 9.2 0.4 0.4 2.8 5.6
18-04-2019 17.9 (16:50) 7.1 (00:00) 12.5 11.39 (18:20) 7.5 (18:20) 21.4 0 0.2 0 21.2
17-04-2019 19.6 (14:20) 7.8 (00:00) 13.7 13.61 (17:10) 8.06 (14:00) 1.2 0 0 0 1.2
16-04-2019 23.8 (17:10) 5.2 (00:00) 14.5 10 (19:20) 5.28 (19:40) 0 0 0 0 0
15-04-2019 20.8 (15:00) 11.3 (00:00) 16 8.89 (18:30) 5.28 (18:10) 0 0 0 0 0
14-04-2019 24.6 (18:20) 10.2 (00:00) 17.4 5 (15:50) 2.78 (15:50) 0 0 0 0 0
13-04-2019 22.8 (17:50) 5.7 (00:00) 14.2 7.5 (18:10) 4.17 (18:00) 0 0 0 0 0
12-04-2019 20.5 (17:50) 3.5 (00:00) 12 5.83 (16:50) 2.78 (13:50) 0 0 0 0 0
11-04-2019 18.8 (18:10) 2.8 (00:00) 10.8 7.22 (00:50) 4.44 (00:50) 0 0 0 0 0
10-04-2019 16.4 (17:30) 6.5 (00:00) 11.4 14.17 (13:20) 7.5 (11:40) 0 0 0 0 0
09-04-2019 15.3 (15:20) 8 (00:00) 11.7 13.89 (17:10) 7.5 (12:50) 1.6 0 0.4 1.2 0
08-04-2019 16.6 (16:30) 8.1 (00:00) 12.4 13.61 (20:20) 6.94 (20:20) 5 1.8 3 0.2 0
07-04-2019 13.6 (18:50) 8.1 (00:00) 10.9 10.28 (20:20) 5.28 (20:20) 4 0.8 0.2 0 3
06-04-2019 13.6 (15:20) 6 (00:00) 9.8 16.67 (17:00) 8.33 (17:10) 4.8 0.2 1 3.6 0
05-04-2019 11.9 (17:20) 5.3 (00:00) 8.6 13.61 (17:40) 6.67 (17:40) 7.2 3.2 2.6 0.4 1
04-04-2019 16.4 (17:20) 1.1 (00:00) 8.7 8.89 (19:30) 6.39 (10:30) 0 0 0 0 0
03-04-2019 17 (17:30) 6.2 (00:00) 11.6 9.44 (15:50) 6.39 (15:50) 0 0 0 0 0
02-04-2019 20.4 (17:40) 6.3 (00:00) 13.3 5.28 (16:20) 3.06 (17:10) 0 0 0 0 0
01-04-2019 20 (15:50) 9.2 (00:00) 14.6 7.78 (16:50) 5.83 (16:50) 7 0.2 0 0 6.8
31-03-2019 19.2 (15:20) 7.7 (00:00) 13.5 10.28 (17:10) 6.11 (17:20) 2.2 0 0 0 2.2
30-03-2019 22.5 (16:40) 9.6 (00:00) 16.1 11.67 (19:30) 7.22 (19:30) 1.8 0 0 0 1.8
29-03-2019 21.7 (17:00) 2.3 (00:00) 12 10.28 (11:20) 5.83 (10:20) 0 0 0 0 0
28-03-2019 20.4 (16:40) 1.8 (00:00) 11.1 10 (13:50) 6.11 (16:20) 0 0 0 0 0
27-03-2019 21.9 (17:10) 6 (00:00) 13.9 12.78 (15:00) 7.22 (14:20) 0 0 0 0 0

Gráficas

Temp. máximas Temp. mínimas Temp. medias Precipitaciones Rachas de viento máximas Velocidades máximas media en intervalos de 10 minutos

Datos horarios

Fecha y hora oficial Temperatura (ºC) Velocidad del viento (km/h) Dirección del viento Racha (km/h) Dirección de racha Precipitación (mm) Presión (hPa) Tendencia (hPa) Humedad (%)
2019-04-25 23:00:00 10.5 9 Oeste 18 Noroeste 0 -- -- 66
2019-04-25 22:00:00 11 9 Noroeste 36 Noroeste 0 -- -- 64
2019-04-25 21:00:00 12.5 19 Noroeste 31 Noroeste 0 -- -- 56
2019-04-25 20:00:00 14.2 14 Noroeste 31 Noroeste 0 -- -- 59
2019-04-25 19:00:00 13.4 22 Noroeste 35 Noroeste 0 -- -- 64
2019-04-25 18:00:00 12.4 13 Noroeste 39 Noroeste 0.4 -- -- 75
2019-04-25 17:00:00 14.5 17 Noroeste 45 Oeste 0 -- -- 58
2019-04-25 16:00:00 14.2 16 Noroeste 42 Noroeste 0 -- -- 64
2019-04-25 15:00:00 14.8 18 Oeste 40 Oeste 0 -- -- 53
2019-04-25 14:00:00 14.3 13 Oeste 44 Oeste 0 -- -- 59
2019-04-25 13:00:00 13.1 20 Oeste 43 Oeste 0 -- -- 63
2019-04-25 12:00:00 11.7 11 Oeste 23 Oeste 0 -- -- 74
2019-04-25 11:00:00 10.9 12 Oeste 28 Oeste 0.4 -- -- 80
2019-04-25 10:00:00 10.6 14 Oeste 27 Oeste 0 -- -- 78
2019-04-25 09:00:00 10.1 12 Oeste 33 Sudoeste 0.2 -- -- 80
2019-04-25 08:00:00 9.8 12 Noroeste 27 Noroeste 0 -- -- 82
2019-04-25 07:00:00 10 9 Oeste 22 Sudoeste 0 -- -- 87
2019-04-25 06:00:00 9.9 11 Oeste 21 Oeste 0 -- -- 86
2019-04-25 05:00:00 9.8 10 Oeste 37 Oeste 1.4 -- -- 85
2019-04-25 04:00:00 10.7 8 Noroeste 28 Oeste 1 -- -- 92
2019-04-25 03:00:00 11 8 Oeste 25 Oeste 0 -- -- 87
2019-04-25 02:00:00 11 12 Oeste 30 Oeste 0 -- -- 87
2019-04-25 01:00:00 11.6 10 Oeste 59 Noroeste 0.8 -- -- 84
2019-04-25 00:00:00 13.2 13 Sur 48 Sudoeste 2.6 -- -- 91
2019-04-24 23:00:00 13.5 17 Sur 44 Sudoeste 0.6 -- -- 87
2019-04-24 22:00:00 13.5 15 Sur 60 Oeste 2.2 -- -- 88
2019-04-24 21:00:00 14.4 10 Noroeste 50 Sudeste 0.6 -- -- 81
2019-04-24 20:00:00 15.2 14 Sur 54 Oeste 0 -- -- 76
2019-04-24 19:00:00 15.1 13 Noroeste 35 Oeste 0 -- -- 78
2019-04-24 18:00:00 15.2 12 Noroeste 60 Sur 0 -- -- 78
2019-04-24 17:00:00 14.4 25 Sur 63 Sur 2.6 -- -- 85
2019-04-24 16:00:00 15.2 25 Sur 48 Sudeste 0.2 -- -- 82
2019-04-24 15:00:00 14.3 26 Sur 45 Sur 0.6 -- -- 86
2019-04-24 14:00:00 13.4 26 Sur 64 Sur 1 -- -- 89
2019-04-24 13:00:00 13.3 29 Sur 67 Sudoeste 0 -- -- 86
2019-04-24 12:00:00 12.2 16 Sur 49 Sur 0.2 -- -- 88
2019-04-24 11:00:00 11.3 13 Sur 38 Sudoeste 0.2 -- -- 89
2019-04-24 10:00:00 10.1 12 Sur 41 Sudeste 0.6 -- -- 91
2019-04-24 09:00:00 9.7 11 Sur 51 Sudoeste 0 -- -- 89
2019-04-24 08:00:00 9.4 21 Sur 57 Sudoeste 0 -- -- 84
2019-04-24 07:00:00 8.9 22 Sur 51 Sudoeste 0 -- -- 83
2019-04-24 06:00:00 8.2 19 Sudeste 34 Sudeste 0 -- -- 85
2019-04-24 05:00:00 7.9 15 Sudeste 29 Sudeste 0.2 -- -- 88
2019-04-24 04:00:00 7 15 Sudeste 25 Sur 0 -- -- 91
2019-04-24 03:00:00 6.8 10 Sudeste 19 Sudeste 0 -- -- 89
2019-04-24 02:00:00 5.7 8 Sudeste 18 Sudeste 0 -- -- 92
2019-04-24 01:00:00 6.8 5 Sudeste 14 Sudeste 0 -- -- 88
2019-04-24 00:00:00 6.6 10 Sudeste 20 Sudeste 0 -- -- 90
2019-04-23 23:00:00 7.1 9 Sudeste 16 Sur 0.2 -- -- 87
2019-04-23 22:00:00 6.6 4 Sudeste 20 Noroeste 1 -- -- 91
2019-04-23 21:00:00 7.6 8 Sur 32 Sur 0 -- -- 79
2019-04-23 20:00:00 8.4 7 Oeste 36 Oeste 0.4 -- -- 76
2019-04-23 19:00:00 7.4 24 Oeste 54 Oeste 2.4 -- -- 81
2019-04-23 18:00:00 11.6 13 Oeste 27 Oeste 0 -- -- 66
2019-04-23 17:00:00 9.2 13 Sudeste 30 Sur 0.8 -- -- 79
2019-04-23 16:00:00 6.9 5 Noroeste 43 Noroeste 2.4 -- -- 87
2019-04-23 15:00:00 8 4 Oeste 36 Oeste 1.8 -- -- 84
2019-04-23 14:00:00 10.6 12 Sudoeste 53 Noroeste 0.2 -- -- 72
2019-04-23 13:00:00 8.5 23 Noroeste 54 Noroeste 0.2 -- -- 77
2019-04-23 12:00:00 9.7 12 Oeste 32 Noroeste 0.4 -- -- 71
2019-04-23 11:00:00 8.8 8 Oeste 31 Oeste 0 -- -- 76
2019-04-23 10:00:00 8.3 10 Oeste 29 Oeste 0 -- -- 77
2019-04-23 09:00:00 7.3 4 Oeste 22 Noroeste 0 -- -- 83
2019-04-23 08:00:00 7.4 11 Noroeste 19 Noroeste 0 -- -- 86
2019-04-23 07:00:00 7.9 9 Noroeste 22 Noroeste 0 -- -- 85
2019-04-23 06:00:00 8.5 13 Noroeste 21 Noroeste 0.2 -- -- 88
2019-04-23 05:00:00 9 5 Oeste 28 Noroeste 1.4 -- -- 90
2019-04-23 04:00:00 9.7 23 Noroeste 35 Noroeste 2.4 -- -- 89
2019-04-23 03:00:00 11.6 15 Sudeste 37 Sudeste 0.4 -- -- 83
2019-04-23 02:00:00 12.2 14 Sur 43 Sudeste 0 -- -- 79
2019-04-23 01:00:00 12.5 19 Sur 45 Sur 0 -- -- 81
2019-04-23 00:00:00 12.9 9 Este 30 Oeste 0 -- -- 78
2019-04-22 23:00:00 14.4 9 Noroeste 28 Oeste 0 -- -- 76
2019-04-22 22:00:00 16.2 5 Sudoeste 32 Oeste 0 -- -- 57
2019-04-22 21:00:00 16.9 9 Noroeste 28 Oeste 0 -- -- 49
2019-04-22 20:00:00 18.1 12 Oeste 34 Oeste 0 -- -- 47
2019-04-22 19:00:00 20 17 Oeste 37 Oeste 0 -- -- 42
2019-04-22 18:00:00 20.3 19 Oeste 33 Oeste 0 -- -- 35
2019-04-22 17:00:00 20.5 14 Sudoeste 35 Sur 0 -- -- 35
2019-04-22 16:00:00 20.7 17 Oeste 41 Noroeste 0 -- -- 38
2019-04-22 15:00:00 20.7 14 Noroeste 34 Sudoeste 0 -- -- 42
2019-04-22 14:00:00 19.7 12 Oeste 30 Oeste 0 -- -- 46
2019-04-22 13:00:00 19.4 8 Sudoeste 22 Oeste 0 -- -- 54
2019-04-22 12:00:00 17.7 10 Sur 22 Sur 0 -- -- 56
2019-04-22 11:00:00 16.2 13 Sur 21 Sudoeste 0 -- -- 56
2019-04-22 10:00:00 11.9 8 Sudeste 12 Sudeste 0 -- -- 77
2019-04-22 09:00:00 9.6 6 Sur 9 Sur 0 -- -- 89
2019-04-22 08:00:00 8.3 5 Sur 12 Sur 0 -- -- 93
2019-04-22 07:00:00 7.9 8 Sur 12 Sur 0 -- -- 94
2019-04-22 06:00:00 7.9 8 Sur 10 Sur 0 -- -- 93
2019-04-22 05:00:00 9 5 Sudeste 9 Sur 0 -- -- 90
2019-04-22 04:00:00 9.5 4 Sudeste 6 Sudeste 0 -- -- 91
2019-04-22 03:00:00 9.7 3 Sudeste 8 Sudeste 0 -- -- 90
2019-04-22 02:00:00 10.9 5 Sudeste 7 Sudeste 0 -- -- 86
2019-04-22 01:00:00 11.4 4 Sur 7 Sur 0 -- -- 86
2019-04-22 00:00:00 11.4 6 Sudeste 8 Sudeste 0 -- -- 87
2019-04-21 23:00:00 12 5 Sudeste 7 Sudeste 0 -- -- 81
2019-04-21 22:00:00 14.3 3 Sudeste 6 Este 0 -- -- 65
2019-04-21 21:00:00 15.3 5 Este 14 Este 0 -- -- 59
2019-04-21 20:00:00 16.5 5 Este 17 Este 0 -- -- 52
2019-04-21 19:00:00 17.7 10 Nordeste 21 Nordeste 0 -- -- 48
2019-04-21 18:00:00 17.5 12 Nordeste 25 Nordeste 0 -- -- 49
2019-04-21 17:00:00 18.2 13 Nordeste 32 Norte 0 -- -- 47
2019-04-21 16:00:00 18.2 15 Nordeste 30 Nordeste 0 -- -- 47
2019-04-21 15:00:00 18.2 15 Norte 31 Norte 0 -- -- 49
2019-04-21 14:00:00 16.6 17 Norte 32 Nordeste 0 -- -- 54
2019-04-21 13:00:00 16.6 16 Nordeste 30 Nordeste 0 -- -- 54
2019-04-21 12:00:00 15.5 14 Nordeste 28 Nordeste 0 -- -- 58
2019-04-21 11:00:00 13.6 12 Nordeste 27 Nordeste 0 -- -- 63
2019-04-21 10:00:00 11.9 12 Norte 21 Norte 0 -- -- 69
2019-04-21 09:00:00 7.7 6 Noroeste 11 Noroeste 0 -- -- 92
2019-04-21 08:00:00 5.7 7 Noroeste 10 Noroeste 0 -- -- 93
2019-04-21 07:00:00 6.5 6 Noroeste 9 Noroeste 0 -- -- 89
2019-04-21 06:00:00 7.7 5 Noroeste 13 Nordeste 0 -- -- 85
2019-04-21 05:00:00 9.3 8 Norte 14 Norte 0 -- -- 78
2019-04-21 04:00:00 9.9 5 Noroeste 10 Noroeste 0 -- -- 76
2019-04-21 03:00:00 10.2 3 Este 15 Este 0 -- -- 76
2019-04-21 02:00:00 10.9 3 Este 16 Sudeste 0 -- -- 74
2019-04-21 01:00:00 11.6 11 Sudeste 28 Este 0 -- -- 70
2019-04-21 00:00:00 11.9 9 Sudeste 34 Este 0 -- -- 68
2019-04-20 23:00:00 12.7 19 Sudeste 42 Este 0 -- -- 64
2019-04-20 22:00:00 12.8 23 Este 45 Sudeste 0 -- -- 66
2019-04-20 21:00:00 13.8 21 Este 47 Sudeste 0 -- -- 63
2019-04-20 20:00:00 15.4 19 Este 37 Este 0 -- -- 60
2019-04-20 19:00:00 15.5 13 Este 40 Este 0 -- -- 60
2019-04-20 18:00:00 15.4 16 Este 39 Este 0 -- -- 60
2019-04-20 17:00:00 14.7 18 Este 40 Nordeste 0 -- -- 69
2019-04-20 16:00:00 15.1 17 Nordeste 41 Norte 0 -- -- 70
2019-04-20 15:00:00 14.4 12 Nordeste 39 Nordeste 0 -- -- 73
2019-04-20 14:00:00 13.6 11 Nordeste 33 Nordeste 0 -- -- 80
2019-04-20 13:00:00 13 16 Norte 37 Norte 0.2 -- -- 83
2019-04-20 12:00:00 11.8 14 Norte 26 Norte 0.4 -- -- 92
2019-04-20 11:00:00 9.9 12 Noroeste 20 Noroeste 1.8 -- -- 98
2019-04-20 10:00:00 9 10 Noroeste 13 Noroeste 1.4 -- -- 97
2019-04-20 09:00:00 8.4 8 Noroeste 11 Noroeste 0 -- -- 97
2019-04-20 08:00:00 7.5 8 Noroeste 10 Noroeste 0 -- -- 97
2019-04-20 07:00:00 7.5 5 Norte 10 Noroeste 0 -- -- 97
2019-04-20 06:00:00 7.3 7 Noroeste 9 Noroeste 0 -- -- 97
2019-04-20 05:00:00 8 3 Noroeste 12 Noroeste 0 -- -- 96
2019-04-20 04:00:00 8.3 2 Noroeste 7 Noroeste 0 -- -- 96
2019-04-20 03:00:00 9 4 Noroeste 8 Noroeste 0 -- -- 96
2019-04-20 02:00:00 9.4 3 Noroeste 8 Noroeste 0 -- -- 97
2019-04-20 01:00:00 9.9 5 Noroeste 8 Noroeste 0.2 -- -- 96
2019-04-20 00:00:00 10.8 5 Noroeste 7 Noroeste 0.2 -- -- 96
2019-04-19 23:00:00 10.9 0 Calma 6 Oeste 0 -- -- 95
2019-04-19 22:00:00 10.9 2 Norte 12 Oeste 1.8 -- -- 93
2019-04-19 21:00:00 11.2 5 Sudeste 12 Sudeste 1.8 -- -- 89
2019-04-19 20:00:00 12.4 4 Sudeste 14 Sudeste 0.2 -- -- 79
2019-04-19 19:00:00 12.6 4 Este 17 Este 1.6 -- -- 86
2019-04-19 18:00:00 14.8 8 Noroeste 22 Oeste 0 -- -- 73
2019-04-19 17:00:00 12.8 11 Oeste 22 Noroeste 1.6 -- -- 84
2019-04-19 16:00:00 15.8 15 Noroeste 24 Oeste 0 -- -- 70
2019-04-19 15:00:00 14.5 14 Oeste 21 Oeste 0.2 -- -- 71
2019-04-19 14:00:00 14.2 8 Noroeste 13 Noroeste 0 -- -- 77
2019-04-19 13:00:00 13.7 9 Oeste 18 Noroeste 1 -- -- 77
2019-04-19 12:00:00 14.4 5 Sudeste 13 Este 0 -- -- 73
2019-04-19 11:00:00 12.4 6 Sudeste 13 Sudeste 0 -- -- 83
2019-04-19 10:00:00 11.1 8 Sudeste 12 Sudeste 0 -- -- 91
2019-04-19 09:00:00 10 6 Sudeste 9 Sudeste 0.2 -- -- 94
2019-04-19 08:00:00 9.5 3 Sudeste 13 Sur 0.2 -- -- 93
2019-04-19 07:00:00 9.5 6 Sudeste 13 Sudoeste 0 -- -- 94
2019-04-19 06:00:00 9.6 7 Sudoeste 15 Sur 0 -- -- 94
2019-04-19 05:00:00 9.6 6 Sur 16 Sudeste 0 -- -- 95
2019-04-19 04:00:00 9.3 8 Sudeste 15 Sur 0 -- -- 95
2019-04-19 03:00:00 9.1 3 Sudeste 13 Oeste 0 -- -- 93
2019-04-19 02:00:00 10.3 5 Oeste 16 Oeste 0.4 -- -- 89
2019-04-19 01:00:00 10.2 5 Sudeste 13 Sudeste 0 -- -- 91
2019-04-19 00:00:00 9.4 3 Este 5 Noroeste 0.4 -- -- 95
2019-04-18 23:00:00 9.2 5 Noroeste 24 Oeste 4.6 -- -- 94
2019-04-18 22:00:00 10.4 6 Oeste 19 Noroeste 0.6 -- -- 87
2019-04-18 21:00:00 10.3 10 Sur 28 Sudoeste 0 -- -- 86
2019-04-18 20:00:00 9.9 13 Sur 35 Sur 4.4 -- -- 89
2019-04-18 19:00:00 9.9 21 Sur 41 Sur 11.2 -- -- 86
2019-04-18 18:00:00 16.5 10 Sudeste 22 Noroeste 0 -- -- 55
2019-04-18 17:00:00 17.7 15 Noroeste 23 Norte 0 -- -- 49
2019-04-18 16:00:00 17.6 8 Nordeste 22 Noroeste 0 -- -- 50
2019-04-18 15:00:00 16.4 7 Sudoeste 17 Oeste 0 -- -- 53
2019-04-18 14:00:00 15.5 5 Sudoeste 18 Oeste 0 -- -- 61
2019-04-18 13:00:00 14 10 Oeste 17 Oeste 0 -- -- 69
2019-04-18 12:00:00 12.9 7 Oeste 14 Oeste 0 -- -- 76
2019-04-18 11:00:00 12.4 9 Sudoeste 15 Sudoeste 0 -- -- 82
2019-04-18 10:00:00 11.8 4 Oeste 8 Sur 0 -- -- 86
2019-04-18 09:00:00 9.2 4 Sur 9 Sudeste 0.2 -- -- 95
2019-04-18 08:00:00 7.4 4 Sudeste 10 Sudeste 0 -- -- 95
2019-04-18 07:00:00 8 8 Sur 12 Sudeste 0 -- -- 93
2019-04-18 06:00:00 10 9 Sur 24 Sur 0 -- -- 88
2019-04-18 05:00:00 8.9 13 Sur 19 Sur 0 -- -- 95
2019-04-18 04:00:00 8.9 6 Sur 12 Sur 0 -- -- 91
2019-04-18 03:00:00 10.6 9 Sudeste 17 Sudeste 0 -- -- 85
2019-04-18 02:00:00 11.2 9 Sudeste 17 Sudeste 0 -- -- 83
2019-04-18 01:00:00 11.2 5 Sudeste 25 Sudeste 0 -- -- 84
2019-04-18 00:00:00 11.2 7 Sudeste 24 Sur 0 -- -- 83
2019-04-17 23:00:00 11.4 8 Sudeste 31 Sudoeste 0 -- -- 80
2019-04-17 22:00:00 11.7 9 Sudeste 24 Sur 0.2 -- -- 84
2019-04-17 21:00:00 12 11 Sudeste 30 Sudeste 1 -- -- 80
2019-04-17 20:00:00 12.9 17 Sudeste 31 Sudeste 0 -- -- 74
2019-04-17 19:00:00 12.8 8 Sudeste 28 Sur 0 -- -- 79
2019-04-17 18:00:00 12.4 8 Este 49 Oeste 0 -- -- 83
2019-04-17 17:00:00 17.9 25 Sur 48 Sudeste 0 -- -- 57
2019-04-17 16:00:00 19.4 29 Sur 49 Sur 0 -- -- 52
2019-04-17 15:00:00 19.1 25 Sur 39 Sur 0 -- -- 53
2019-04-17 14:00:00 18.8 29 Sur 47 Sur 0 -- -- 54
2019-04-17 13:00:00 17.5 17 Sur 37 Sur 0 -- -- 59
2019-04-17 12:00:00 16.7 21 Sur 33 Sur 0 -- -- 59
2019-04-17 11:00:00 14.9 11 Sudeste 19 Sudeste 0 -- -- 60
2019-04-17 10:00:00 12.4 5 Sur 11 Sur 0 -- -- 72
2019-04-17 09:00:00 9 6 Sudeste 9 Sudeste 0 -- -- 85
2019-04-17 08:00:00 8.5 6 Sur 9 Sur 0 -- -- 84
2019-04-17 07:00:00 8.6 6 Sudeste 9 Sur 0 -- -- 84
2019-04-17 06:00:00 8.2 6 Sudeste 10 Sur 0 -- -- 84
2019-04-17 05:00:00 8.4 5 Sur 7 Sur 0 -- -- 82
2019-04-17 04:00:00 10.1 5 Sudeste 11 Sur 0 -- -- 74
2019-04-17 03:00:00 11.7 6 Sur 10 Sur 0 -- -- 69
2019-04-17 02:00:00 12.7 7 Sur 24 Sur 0 -- -- 65
2019-04-17 01:00:00 13.8 7 Sur 21 Sudeste 0 -- -- 59
2019-04-17 00:00:00 16.6 12 Sudeste 24 Sudeste 0 -- -- 49
2019-04-16 23:00:00 14 5 Sudeste 7 Sur 0 -- -- 60
2019-04-16 22:00:00 15.5 5 Sur 13 Sudeste 0 -- -- 54
2019-04-16 21:00:00 18.8 7 Sudeste 29 Sur 0 -- -- 43
2019-04-16 20:00:00 21.6 19 Sudeste 36 Sur 0 -- -- 34
2019-04-16 19:00:00 23.2 15 Sudeste 26 Sudeste 0 -- -- 31
2019-04-16 18:00:00 23.5 18 Sudeste 30 Sur 0 -- -- 31
2019-04-16 17:00:00 23.5 13 Sur 30 Sudeste 0 -- -- 31
2019-04-16 16:00:00 22.9 17 Sudeste 32 Sudeste 0 -- -- 31
2019-04-16 15:00:00 22 14 Sur 27 Sur 0 -- -- 30
2019-04-16 14:00:00 21 13 Sudeste 32 Sudeste 0 -- -- 34
2019-04-16 13:00:00 19.6 15 Sudeste 24 Sur 0 -- -- 46
2019-04-16 12:00:00 17.9 12 Sudeste 25 Sudeste 0 -- -- 50
2019-04-16 11:00:00 15.9 14 Sudeste 23 Sudeste 0 -- -- 63
2019-04-16 10:00:00 11.9 6 Sur 12 Sudeste 0 -- -- 83
2019-04-16 09:00:00 7.6 6 Sur 12 Sudeste 0 -- -- 94
2019-04-16 08:00:00 5.2 9 Sudeste 12 Sudeste 0 -- -- 95
2019-04-16 07:00:00 5.7 6 Sur 12 Sur 0 -- -- 94
2019-04-16 06:00:00 5.9 8 Sur 12 Sur 0 -- -- 95
2019-04-16 05:00:00 6.8 7 Sudeste 10 Sudeste 0 -- -- 94
2019-04-16 04:00:00 7.1 6 Sudeste 8 Sudeste 0 -- -- 94
2019-04-16 03:00:00 8.5 4 Sudeste 9 Sudeste 0 -- -- 91
2019-04-16 02:00:00 9.1 2 Noroeste 8 Noroeste 0 -- -- 88
2019-04-16 01:00:00 10.4 2 Nordeste 9 Norte 0 -- -- 84
2019-04-16 00:00:00 12.1 3 Norte 11 Oeste 0 -- -- 76
2019-04-15 23:00:00 14.1 3 Oeste 14 Oeste 0 -- -- 65
2019-04-15 22:00:00 14.9 9 Noroeste 19 Noroeste 0 -- -- 61
2019-04-15 21:00:00 16.6 12 Noroeste 20 Noroeste 0 -- -- 56
2019-04-15 20:00:00 18.6 10 Noroeste 27 Oeste 0 -- -- 49
2019-04-15 19:00:00 19.1 13 Noroeste 32 Noroeste 0 -- -- 54
2019-04-15 18:00:00 18.8 13 Noroeste 31 Oeste 0 -- -- 58
2019-04-15 17:00:00 18.5 14 Oeste 26 Sudoeste 0 -- -- 59
2019-04-15 16:00:00 19.6 13 Oeste 30 Noroeste 0 -- -- 51
2019-04-15 15:00:00 20.8 10 Oeste 31 Sur 0 -- -- 44
2019-04-15 14:00:00 20.1 8 Oeste 28 Oeste 0 -- -- 51
2019-04-15 13:00:00 19 12 Oeste 21 Oeste 0 -- -- 58
2019-04-15 12:00:00 17.8 8 Noroeste 19 Noroeste 0 -- -- 65
2019-04-15 11:00:00 17.6 7 Sudoeste 20 Oeste 0 -- -- 70
2019-04-15 10:00:00 16.6 8 Sudoeste 17 Sudoeste 0 -- -- 75
2019-04-15 09:00:00 12.8 7 Sudeste 17 Sudeste 0 -- -- 87
2019-04-15 08:00:00 11.6 8 Sur 12 Sudeste 0 -- -- 91
2019-04-15 07:00:00 11.6 7 Sur 12 Sudeste 0 -- -- 90
2019-04-15 06:00:00 11.3 8 Sur 9 Sudeste 0 -- -- 90
2019-04-15 05:00:00 11.8 8 Sur 10 Sur 0 -- -- 90
2019-04-15 04:00:00 12.7 7 Sur 10 Sur 0 -- -- 89
2019-04-15 03:00:00 13.6 8 Sur 11 Sudoeste 0 -- -- 88
2019-04-15 02:00:00 15.5 6 Sur 14 Sudoeste 0 -- -- 82
2019-04-15 01:00:00 17.7 6 Sudoeste 14 Sur 0 -- -- 73
2019-04-15 00:00:00 16.1 3 Sur 6 Sudeste 0 -- -- 81
2019-04-14 23:00:00 16.5 5 Sur 8 Sudeste 0 -- -- 79
2019-04-14 22:00:00 18.3 0 Calma 5 Sur 0 -- -- 72
2019-04-14 21:00:00 20.6 3 Sudeste 6 Sudoeste 0 -- -- 62
2019-04-14 20:00:00 23.4 3 Sudoeste 11 Oeste 0 -- -- 48
2019-04-14 19:00:00 24.5 4 Oeste 17 Oeste 0 -- -- 45
2019-04-14 18:00:00 24 5 Oeste 16 Oeste 0 -- -- 44
2019-04-14 17:00:00 23.7 9 Sudoeste 17 Sur 0 -- -- 44
2019-04-14 16:00:00 24 8 Noroeste 18 Noroeste 0 -- -- 44
2019-04-14 15:00:00 22.1 6 Sudeste 13 Noroeste 0 -- -- 55
2019-04-14 14:00:00 22 6 Noroeste 14 Noroeste 0 -- -- 56
2019-04-14 13:00:00 19.9 4 Sudeste 12 Sudeste 0 -- -- 65
2019-04-14 12:00:00 17.6 4 Sudeste 13 Este 0 -- -- 74
2019-04-14 11:00:00 14.8 3 Sudeste 11 Sudeste 0 -- -- 83
2019-04-14 10:00:00 13.8 3 Oeste 10 Sudoeste 0 -- -- 87
2019-04-14 09:00:00 13.1 0 Calma 6 Noroeste 0 -- -- 92
2019-04-14 08:00:00 12.9 0 Calma 5 Noroeste 0 -- -- 92
2019-04-14 07:00:00 13 3 Norte 6 Noroeste 0 -- -- 93
2019-04-14 06:00:00 12.9 4 Noroeste 5 Norte 0 -- -- 94
2019-04-14 05:00:00 11.8 0 Calma 7 Noroeste 0 -- -- 95
2019-04-14 04:00:00 10.4 0 Calma 7 Sudeste 0 -- -- 93
2019-04-14 03:00:00 10.9 3 Sudeste 5 Sudeste 0 -- -- 90
2019-04-14 02:00:00 11.8 2 Noroeste 8 Noroeste 0 -- -- 87
2019-04-14 01:00:00 11.4 3 Sudeste 5 Sudeste 0 -- -- 83
2019-04-14 00:00:00 11.3 0 Calma 4 Noroeste 0 -- -- 77
2019-04-13 23:00:00 12.8 2 Sudeste 4 Sudeste 0 -- -- 69
2019-04-13 22:00:00 15.5 0 Calma 12 Noroeste 0 -- -- 53
2019-04-13 21:00:00 17.1 3 Noroeste 19 Noroeste 0 -- -- 48
2019-04-13 20:00:00 19.9 12 Noroeste 24 Noroeste 0 -- -- 36
2019-04-13 19:00:00 21.7 12 Noroeste 27 Oeste 0 -- -- 36
2019-04-13 18:00:00 22.3 15 Oeste 26 Oeste 0 -- -- 36
2019-04-13 17:00:00 21.4 7 Sudoeste 21 Sudoeste 0 -- -- 39
2019-04-13 16:00:00 22.3 9 Oeste 24 Oeste 0 -- -- 39
2019-04-13 15:00:00 21.5 11 Sudoeste 19 Sur 0 -- -- 40
2019-04-13 14:00:00 20.4 8 Sudeste 20 Sur 0 -- -- 42
2019-04-13 13:00:00 19.7 5 Nordeste 13 Norte 0 -- -- 44
2019-04-13 12:00:00 19 5 Sudeste 9 Nordeste 0 -- -- 47
2019-04-13 11:00:00 16.5 2 Sur 8 Sudeste 0 -- -- 53
2019-04-13 10:00:00 12.5 6 Sur 10 Sudeste 0 -- -- 72
2019-04-13 09:00:00 7.8 7 Sur 12 Sur 0 -- -- 82
2019-04-13 08:00:00 5.8 8 Sur 13 Sur 0 -- -- 87
2019-04-13 07:00:00 5.9 9 Sudeste 12 Sur 0 -- -- 87
2019-04-13 06:00:00 6.4 8 Sur 12 Sur 0 -- -- 84
2019-04-13 05:00:00 6.3 6 Sudeste 8 Sur 0 -- -- 85
2019-04-13 04:00:00 6.4 6 Sudeste 10 Sudeste 0 -- -- 82
2019-04-13 03:00:00 6.8 6 Sudeste 12 Sudeste 0 -- -- 82
2019-04-13 02:00:00 7.2 6 Sudeste 9 Sudeste 0 -- -- 82
2019-04-13 01:00:00 7.7 6 Sudeste 9 Sudeste 0 -- -- 79
2019-04-13 00:00:00 8.7 5 Sudeste 10 Sudeste 0 -- -- 73
2019-04-12 23:00:00 9.4 5 Sudeste 7 Sudeste 0 -- -- 71
2019-04-12 22:00:00 11.5 2 Sudeste 4 Norte 0 -- -- 63
2019-04-12 21:00:00 15.2 4 Norte 10 Noroeste 0 -- -- 45
2019-04-12 20:00:00 19.1 6 Noroeste 19 Noroeste 0 -- -- 32
2019-04-12 19:00:00 20.3 6 Noroeste 18 Norte 0 -- -- 26
2019-04-12 18:00:00 20.5 9 Noroeste 18 Noroeste 0 -- -- 29
2019-04-12 17:00:00 20.2 9 Noroeste 21 Norte 0 -- -- 33
2019-04-12 16:00:00 19.8 5 Noroeste 17 Noroeste 0 -- -- 34
2019-04-12 15:00:00 18.6 8 Norte 20 Noroeste 0 -- -- 37
2019-04-12 14:00:00 17.9 10 Noroeste 18 Noroeste 0 -- -- 37
2019-04-12 13:00:00 16.9 9 Noroeste 15 Noroeste 0 -- -- 45
2019-04-12 12:00:00 15.3 7 Noroeste 14 Noroeste 0 -- -- 54
2019-04-12 11:00:00 14.1 3 Norte 7 Sudeste 0 -- -- 50
2019-04-12 10:00:00 10.4 4 Sudeste 10 Sur 0 -- -- 80
2019-04-12 09:00:00 5.9 6 Sudeste 10 Sudeste 0 -- -- 94
2019-04-12 08:00:00 3.7 7 Sur 10 Sur 0 -- -- 96
2019-04-12 07:00:00 4 8 Sur 10 Sur 0 -- -- 96
2019-04-12 06:00:00 4 5 Sudeste 11 Sudeste 0 -- -- 94
2019-04-12 05:00:00 4.5 5 Sur 9 Sudeste 0 -- -- 95
2019-04-12 04:00:00 5.1 5 Sudeste 8 Sur 0 -- -- 94
2019-04-12 03:00:00 5.4 3 Sudeste 5 Sudeste 0 -- -- 92
2019-04-12 02:00:00 6 3 Sudeste 4 Sudeste 0 -- -- 90
2019-04-12 01:00:00 6.8 0 Calma 4 Sudeste 0 -- -- 87
2019-04-12 00:00:00 7.9 0 Calma 4 Sudeste 0 -- -- 83
2019-04-11 23:00:00 9.1 0 Calma 5 Sudeste 0 -- -- 77
2019-04-11 22:00:00 11.6 0 Calma 6 Norte 0 -- -- 67
2019-04-11 21:00:00 14.9 6 Noroeste 21 Noroeste 0 -- -- 51
2019-04-11 20:00:00 17.3 12 Noroeste 24 Norte 0 -- -- 44
2019-04-11 19:00:00 18.1 11 Noroeste 23 Norte 0 -- -- 37
2019-04-11 18:00:00 18.6 13 Noroeste 24 Noroeste 0 -- -- 39
2019-04-11 17:00:00 17.2 11 Noroeste 24 Noroeste 0 -- -- 44
2019-04-11 16:00:00 17.7 15 Noroeste 24 Norte 0 -- -- 42
2019-04-11 15:00:00 16.5 10 Norte 25 Norte 0 -- -- 44
2019-04-11 14:00:00 16.2 11 Noroeste 20 Norte 0 -- -- 50
2019-04-11 13:00:00 15 11 Noroeste 18 Noroeste 0 -- -- 57
2019-04-11 12:00:00 13.3 12 Noroeste 22 Norte 0 -- -- 66
2019-04-11 11:00:00 11.5 13 Noroeste 20 Noroeste 0 -- -- 73
2019-04-11 10:00:00 9.3 12 Noroeste 18 Noroeste 0 -- -- 86
2019-04-11 09:00:00 4.8 0 Calma 4 Sudeste 0 -- -- 97
2019-04-11 08:00:00 3 2 Sudeste 6 Sudeste 0 -- -- 96
2019-04-11 07:00:00 3.5 5 Sudeste 7 Sudeste 0 -- -- 96
2019-04-11 06:00:00 4.2 3 Sudeste 6 Sudeste 0 -- -- 95
2019-04-11 05:00:00 4.8 3 Norte 6 Nordeste 0 -- -- 93
2019-04-11 04:00:00 5.4 3 Sudeste 6 Noroeste 0 -- -- 92
2019-04-11 03:00:00 6.3 5 Norte 9 Noroeste 0 -- -- 91
2019-04-11 02:00:00 8.1 7 Noroeste 21 Noroeste 0 -- -- 85
2019-04-11 01:00:00 9 16 Norte 26 Noroeste 0 -- -- 81
2019-04-11 00:00:00 10 14 Noroeste 26 Norte 0 -- -- 77
2019-04-10 23:00:00 10.3 15 Noroeste 25 Noroeste 0 -- -- 75
2019-04-10 22:00:00 10 9 Noroeste 26 Noroeste 0 -- -- 76
2019-04-10 21:00:00 12.4 13 Noroeste 35 Noroeste 0 -- -- 66
2019-04-10 20:00:00 15 21 Noroeste 40 Noroeste 0 -- -- 55
2019-04-10 19:00:00 16.2 23 Noroeste 39 Noroeste 0 -- -- 49
2019-04-10 18:00:00 15.9 22 Noroeste 37 Noroeste 0 -- -- 47
2019-04-10 17:00:00 15.9 23 Noroeste 41 Noroeste 0 -- -- 49
2019-04-10 16:00:00 15.5 23 Noroeste 40 Noroeste 0 -- -- 51
2019-04-10 15:00:00 15.6 26 Noroeste 39 Noroeste 0 -- -- 53
2019-04-10 14:00:00 14.6 23 Noroeste 51 Noroeste 0 -- -- 58
2019-04-10 13:00:00 13.5 22 Noroeste 36 Noroeste 0 -- -- 57
2019-04-10 12:00:00 12.7 27 Noroeste 38 Norte 0 -- -- 64
2019-04-10 11:00:00 11.4 23 Noroeste 37 Noroeste 0 -- -- 69
2019-04-10 10:00:00 10.2 20 Noroeste 31 Noroeste 0 -- -- 76
2019-04-10 09:00:00 8 12 Noroeste 21 Noroeste 0 -- -- 87
2019-04-10 08:00:00 7.4 11 Noroeste 20 Noroeste 0 -- -- 90
2019-04-10 07:00:00 6.6 5 Norte 27 Oeste 0 -- -- 91
2019-04-10 06:00:00 6.9 7 Noroeste 15 Noroeste 0 -- -- 92
2019-04-10 05:00:00 7.1 3 Noroeste 14 Oeste 0 -- -- 89
2019-04-10 04:00:00 8.6 7 Norte 19 Noroeste 0 -- -- 86
2019-04-10 03:00:00 8.6 9 Noroeste 27 Oeste 0 -- -- 83
2019-04-10 02:00:00 8.5 12 Noroeste 27 Noroeste 0 -- -- 85
2019-04-10 01:00:00 9.1 14 Noroeste 31 Noroeste 0 -- -- 81
2019-04-10 00:00:00 9.9 19 Noroeste 28 Oeste 0 -- -- 78
2019-04-09 23:00:00 10.5 15 Noroeste 29 Noroeste 0 -- -- 76
2019-04-09 22:00:00 11.2 18 Noroeste 32 Oeste 0 -- -- 72
2019-04-09 21:00:00 12.7 24 Noroeste 36 Noroeste 0 -- -- 64
2019-04-09 20:00:00 13.8 22 Noroeste 36 Oeste 0 -- -- 58
2019-04-09 19:00:00 13.9 13 Noroeste 28 Norte 0 -- -- 71
2019-04-09 18:00:00 13.9 14 Oeste 50 Noroeste 1 -- -- 68
2019-04-09 17:00:00 13.9 15 Oeste 36 Oeste 0 -- -- 66
2019-04-09 16:00:00 14.1 20 Oeste 38 Noroeste 0 -- -- 62
2019-04-09 15:00:00 14.3 14 Oeste 34 Noroeste 0 -- -- 61
2019-04-09 14:00:00 13.5 19 Noroeste 42 Noroeste 0 -- -- 63
2019-04-09 13:00:00 10.7 18 Noroeste 42 Noroeste 0.2 -- -- 79
2019-04-09 12:00:00 12 17 Noroeste 36 Noroeste 0 -- -- 69
2019-04-09 11:00:00 10.8 8 Oeste 26 Noroeste 0.4 -- -- 82
2019-04-09 10:00:00 10 10 Oeste 23 Oeste 0 -- -- 85
2019-04-09 09:00:00 9 13 Oeste 25 Oeste 0 -- -- 86
2019-04-09 08:00:00 9.1 8 Noroeste 19 Oeste 0 -- -- 86
2019-04-09 07:00:00 8.8 3 Sudeste 13 Este 0 -- -- 89
2019-04-09 06:00:00 8.7 3 Este 18 Oeste 0 -- -- 90
2019-04-09 05:00:00 8.9 4 Nordeste 15 Sudoeste 0 -- -- 89
2019-04-09 04:00:00 8.8 4 Sudeste 12 Sudeste 0 -- -- 87
2019-04-09 03:00:00 8.4 8 Sudeste 12 Sudeste 0 -- -- 87
2019-04-09 02:00:00 8.6 8 Sur 17 Oeste 0 -- -- 82
2019-04-09 01:00:00 9.1 6 Noroeste 16 Oeste 0 -- -- 77
2019-04-09 00:00:00 9.9 8 Oeste 22 Oeste 0 -- -- 72
2019-04-08 23:00:00 9.6 5 Oeste 22 Oeste 0 -- -- 76
2019-04-08 22:00:00 8.6 0 Calma 12 Norte 0 -- -- 90
2019-04-08 21:00:00 10.3 11 Norte 49 Noroeste 0 -- -- 84
2019-04-08 20:00:00 14.4 17 Noroeste 31 Oeste 0 -- -- 52
2019-04-08 19:00:00 15.2 14 Noroeste 41 Noroeste 0 -- -- 46
2019-04-08 18:00:00 16 15 Noroeste 34 Noroeste 0 -- -- 47
2019-04-08 17:00:00 15.6 14 Oeste 35 Oeste 0 -- -- 54
2019-04-08 16:00:00 16.1 11 Noroeste 32 Oeste 0 -- -- 55
2019-04-08 15:00:00 15.7 11 Noroeste 37 Oeste 0 -- -- 54
2019-04-08 14:00:00 14.4 9 Oeste 23 Noroeste 0.2 -- -- 68
2019-04-08 13:00:00 14.4 6 Sur 21 Oeste 0 -- -- 74
2019-04-08 12:00:00 13.1 5 Sudoeste 14 Oeste 0 -- -- 79
2019-04-08 11:00:00 12.2 7 Sur 13 Sur 0 -- -- 88
2019-04-08 10:00:00 11.3 0 Calma 11 Noroeste 0.2 -- -- 90
2019-04-08 09:00:00 10.9 8 Oeste 18 Noroeste 1.4 -- -- 93
2019-04-08 08:00:00 11.1 5 Oeste 23 Noroeste 0.8 -- -- 93
2019-04-08 07:00:00 11 8 Sudeste 24 Sudeste 0.6 -- -- 93
2019-04-08 06:00:00 10.9 13 Sudeste 35 Sudeste 0.6 -- -- 91
2019-04-08 05:00:00 11.1 12 Sudeste 45 Sudeste 0.4 -- -- 91
2019-04-08 04:00:00 11.2 14 Sudeste 42 Sur 0.4 -- -- 90
2019-04-08 03:00:00 11.4 10 Sudeste 26 Sudoeste 0 -- -- 90
2019-04-08 02:00:00 11.6 9 Nordeste 22 Oeste 0 -- -- 89
2019-04-08 01:00:00 11.8 8 Noroeste 29 Oeste 0.4 -- -- 90
2019-04-08 00:00:00 11.9 11 Sudeste 25 Sur 1 -- -- 92
2019-04-07 23:00:00 12.3 4 Nordeste 15 Noroeste 0 -- -- 90
2019-04-07 22:00:00 12.2 3 Este 19 Oeste 0 -- -- 88
2019-04-07 21:00:00 12.4 9 Noroeste 37 Noroeste 1 -- -- 86
2019-04-07 20:00:00 12.9 9 Oeste 26 Oeste 1 -- -- 91
2019-04-07 19:00:00 13.6 7 Sur 18 Sudeste 0 -- -- 84
2019-04-07 18:00:00 13.3 9 Sur 21 Sur 0 -- -- 84
2019-04-07 17:00:00 12.2 9 Sur 25 Sur 0 -- -- 90
2019-04-07 16:00:00 11.5 10 Sur 24 Sur 0 -- -- 89
2019-04-07 15:00:00 11.3 10 Sur 24 Sur 0 -- -- 87
2019-04-07 14:00:00 10.5 10 Sur 24 Oeste 0 -- -- 85
2019-04-07 13:00:00 11.4 7 Sur 18 Sudeste 0 -- -- 76
2019-04-07 12:00:00 10.8 5 Sudoeste 14 Oeste 0 -- -- 80
2019-04-07 11:00:00 9.8 4 Sudoeste 13 Oeste 0 -- -- 86
2019-04-07 10:00:00 8.8 6 Oeste 17 Sudoeste 0 -- -- 88
2019-04-07 09:00:00 8.1 5 Oeste 15 Oeste 0.2 -- -- 90
2019-04-07 08:00:00 8.4 9 Oeste 25 Oeste 0 -- -- 86
2019-04-07 07:00:00 8.4 9 Oeste 25 Oeste 0 -- -- 86
2019-04-07 06:00:00 8.4 8 Sudoeste 27 Sudoeste 0 -- -- 85
2019-04-07 05:00:00 8.4 13 Noroeste 29 Oeste 0.2 -- -- 84
2019-04-07 04:00:00 8.1 8 Oeste 24 Oeste 0 -- -- 88
2019-04-07 03:00:00 8.1 9 Oeste 26 Oeste 0.6 -- -- 89
2019-04-07 02:00:00 8.4 9 Noroeste 29 Oeste 0 -- -- 81
2019-04-07 01:00:00 8.2 9 Oeste 36 Oeste 0 -- -- 81
2019-04-07 00:00:00 8.4 9 Oeste 32 Noroeste 0 -- -- 77
2019-04-06 23:00:00 8.7 13 Noroeste 28 Noroeste 0 -- -- 77
2019-04-06 22:00:00 9 10 Oeste 20 Oeste 0 -- -- 82
2019-04-06 21:00:00 9.5 7 Oeste 23 Oeste 0 -- -- 74
2019-04-06 20:00:00 10.8 6 Oeste 31 Oeste 0 -- -- 69
2019-04-06 19:00:00 10.6 10 Sudoeste 32 Oeste 0 -- -- 71
2019-04-06 18:00:00 10 10 Noroeste 58 Noroeste 2.8 -- -- 77
2019-04-06 17:00:00 9 29 Noroeste 60 Noroeste 0.6 -- -- 78
2019-04-06 16:00:00 8.5 26 Noroeste 45 Noroeste 0 -- -- 81
2019-04-06 15:00:00 13 15 Noroeste 36 Oeste 0 -- -- 53
2019-04-06 14:00:00 12.2 15 Oeste 35 Sudoeste 0 -- -- 65
2019-04-06 13:00:00 10.3 10 Oeste 28 Oeste 0.2 -- -- 76
2019-04-06 12:00:00 8.1 7 Oeste 27 Oeste 0.2 -- -- 87
2019-04-06 11:00:00 7.5 9 Oeste 23 Sudoeste 0.8 -- -- 88
2019-04-06 10:00:00 7.3 8 Sudoeste 23 Oeste 0 -- -- 88
2019-04-06 09:00:00 7 9 Sudoeste 18 Sudoeste 0 -- -- 87
2019-04-06 08:00:00 6.8 7 Oeste 20 Sudoeste 0 -- -- 88
2019-04-06 07:00:00 7 8 Oeste 26 Oeste 0 -- -- 88
2019-04-06 06:00:00 7.3 10 Oeste 28 Oeste 0 -- -- 86
2019-04-06 05:00:00 6.9 19 Oeste 34 Oeste 0 -- -- 90
2019-04-06 04:00:00 7.3 9 Noroeste 33 Noroeste 0.2 -- -- 85
2019-04-06 03:00:00 7 10 Noroeste 23 Noroeste 0 -- -- 84
2019-04-06 02:00:00 7 6 Oeste 25 Oeste 0 -- -- 86
2019-04-06 01:00:00 6.9 7 Oeste 25 Sudoeste 0 -- -- 85
2019-04-06 00:00:00 6.3 5 Noroeste 22 Oeste 0 -- -- 83
2019-04-05 23:00:00 6.5 8 Oeste 31 Oeste 0.2 -- -- 82
2019-04-05 22:00:00 7.3 20 Noroeste 34 Oeste 0 -- -- 82
2019-04-05 21:00:00 7.2 11 Oeste 30 Oeste 0 -- -- 85
2019-04-05 20:00:00 7.3 12 Oeste 37 Oeste 0.8 -- -- 81
2019-04-05 19:00:00 9.4 10 Oeste 34 Noroeste 0 -- -- 67
2019-04-05 18:00:00 9 9 Noroeste 49 Oeste 0.2 -- -- 78
2019-04-05 17:00:00 11.3 14 Oeste 43 Oeste 0 -- -- 56
2019-04-05 16:00:00 10.9 13 Oeste 38 Oeste 0 -- -- 54
2019-04-05 15:00:00 10.6 16 Noroeste 35 Noroeste 0 -- -- 54
2019-04-05 14:00:00 9.3 17 Noroeste 41 Noroeste 0 -- -- 66
2019-04-05 13:00:00 8.5 9 Noroeste 29 Noroeste 0.2 -- -- 71
2019-04-05 12:00:00 6.4 11 Norte 25 Noroeste 0 -- -- 89
2019-04-05 11:00:00 5.3 14 Norte 39 Noroeste 0.8 -- -- 92
2019-04-05 10:00:00 7.3 14 Oeste 28 Oeste 1.6 -- -- 87
2019-04-05 09:00:00 7.4 6 Sur 26 Sudeste 0 -- -- 89
2019-04-05 08:00:00 7.3 8 Sudeste 15 Sudeste 0 -- -- 88
2019-04-05 07:00:00 7.6 7 Sur 20 Sur 0.2 -- -- 88
2019-04-05 06:00:00 7.8 5 Sur 21 Sur 0.8 -- -- 88
2019-04-05 05:00:00 8 9 Sudeste 36 Sudeste 1.6 -- -- 90
2019-04-05 04:00:00 7.5 17 Sur 35 Sur 0.8 -- -- 90
2019-04-05 03:00:00 7.6 13 Sur 31 Sudeste 0 -- -- 79
2019-04-05 02:00:00 7.7 13 Sudeste 31 Oeste 0 -- -- 71
2019-04-05 01:00:00 9.1 5 Este 15 Este 0 -- -- 67
2019-04-05 00:00:00 9.7 14 Oeste 32 Sudoeste 0 -- -- 61
2019-04-04 23:00:00 10.6 12 Oeste 24 Oeste 0 -- -- 59
2019-04-04 22:00:00 11.6 10 Noroeste 26 Oeste 0 -- -- 47
2019-04-04 21:00:00 12.4 5 Oeste 23 Noroeste 0 -- -- 42
2019-04-04 20:00:00 14.4 14 Noroeste 32 Oeste 0 -- -- 34
2019-04-04 19:00:00 15.7 14 Oeste 25 Oeste 0 -- -- 28
2019-04-04 18:00:00 16.2 10 Noroeste 30 Noroeste 0 -- -- 30
2019-04-04 17:00:00 16.2 15 Noroeste 28 Noroeste 0 -- -- 30
2019-04-04 16:00:00 15.4 12 Noroeste 27 Noroeste 0 -- -- 32
2019-04-04 15:00:00 14 7 Noroeste 20 Norte 0 -- -- 33
2019-04-04 14:00:00 12.5 10 Noroeste 22 Noroeste 0 -- -- 39
2019-04-04 13:00:00 11 12 Norte 30 Noroeste 0 -- -- 47
2019-04-04 12:00:00 9.6 17 Norte 27 Noroeste 0 -- -- 51
2019-04-04 11:00:00 8 17 Norte 30 Norte 0 -- -- 54
2019-04-04 10:00:00 6.3 16 Noroeste 21 Norte 0 -- -- 63
2019-04-04 09:00:00 2.9 3 Nordeste 6 Noroeste 0 -- -- 83
2019-04-04 08:00:00 1.2 2 Noroeste 9 Noroeste 0 -- -- 85
2019-04-04 07:00:00 2 9 Noroeste 13 Noroeste 0 -- -- 82
2019-04-04 06:00:00 2.9 7 Noroeste 21 Noroeste 0 -- -- 82
2019-04-04 05:00:00 4.8 14 Norte 21 Noroeste 0 -- -- 76
2019-04-04 04:00:00 5.4 12 Norte 22 Norte 0 -- -- 77
2019-04-04 03:00:00 5.8 10 Norte 17 Noroeste 0 -- -- 80
2019-04-04 02:00:00 6.6 11 Norte 23 Noroeste 0 -- -- 76
2019-04-04 01:00:00 7.8 14 Norte 26 Noroeste 0 -- -- 71
2019-04-04 00:00:00 9.5 19 Noroeste 32 Noroeste 0 -- -- 61
2019-04-03 23:00:00 9.2 8 Noroeste 17 Noroeste 0 -- -- 64
2019-04-03 22:00:00 11 11 Norte 25 Noroeste 0 -- -- 59
2019-04-03 21:00:00 13.2 15 Noroeste 23 Noroeste 0 -- -- 49
2019-04-03 20:00:00 14.9 14 Noroeste 28 Noroeste 0 -- -- 49
2019-04-03 19:00:00 16.1 19 Noroeste 34 Norte 0 -- -- 45
2019-04-03 18:00:00 16.7 18 Noroeste 31 Noroeste 0 -- -- 46
2019-04-03 17:00:00 16.8 19 Noroeste 33 Noroeste 0 -- -- 48
2019-04-03 16:00:00 16.2 18 Noroeste 34 Noroeste 0 -- -- 47
2019-04-03 15:00:00 16.7 12 Oeste 28 Noroeste 0 -- -- 46
2019-04-03 14:00:00 15.3 8 Oeste 24 Oeste 0 -- -- 57
2019-04-03 13:00:00 14.3 6 Oeste 22 Oeste 0 -- -- 62
2019-04-03 12:00:00 12.9 11 Sudoeste 19 Sur 0 -- -- 68
2019-04-03 11:00:00 10.7 14 Sudoeste 21 Sur 0 -- -- 78
2019-04-03 10:00:00 10.1 5 Sudeste 10 Sudeste 0 -- -- 82
2019-04-03 09:00:00 7.1 6 Sudeste 13 Sudeste 0 -- -- 96
2019-04-03 08:00:00 6.5 6 Sudeste 12 Sudeste 0 -- -- 95
2019-04-03 07:00:00 6.4 4 Sudeste 8 Sudeste 0 -- -- 93
2019-04-03 06:00:00 6.4 6 Sudeste 6 Sudeste 0 -- -- 94
2019-04-03 05:00:00 6.9 3 Sudeste 7 Sudeste 0 -- -- 91
2019-04-03 04:00:00 7.3 6 Sudeste 8 Sudeste 0 -- -- 94
2019-04-03 03:00:00 7.4 3 Sudeste 6 Sudeste 0 -- -- 93
2019-04-03 02:00:00 8.3 3 Sudeste 4 Sudeste 0 -- -- 91
2019-04-03 01:00:00 9.5 3 Sudeste 5 Sudeste 0 -- -- 87
2019-04-03 00:00:00 10.2 2 Este 5 Este 0 -- -- 87
2019-04-02 23:00:00 11.6 0 Calma 5 Sudeste 0 -- -- 82
2019-04-02 22:00:00 13.1 0 Calma 15 Noroeste 0 -- -- 78
2019-04-02 21:00:00 15.4 8 Noroeste 14 Noroeste 0 -- -- 62
2019-04-02 20:00:00 17.5 3 Noroeste 7 Oeste 0 -- -- 56
2019-04-02 19:00:00 19.1 5 Norte 11 Noroeste 0 -- -- 48
2019-04-02 18:00:00 18.7 10 Noroeste 18 Noroeste 0 -- -- 50
2019-04-02 17:00:00 19.6 6 Noroeste 19 Norte 0 -- -- 47
2019-04-02 16:00:00 18.9 5 Noroeste 16 Oeste 0 -- -- 45
2019-04-02 15:00:00 18.3 9 Noroeste 17 Noroeste 0 -- -- 52
2019-04-02 14:00:00 17 5 Noroeste 17 Noroeste 0 -- -- 62
2019-04-02 13:00:00 15.7 9 Noroeste 17 Norte 0 -- -- 70
2019-04-02 12:00:00 14.6 9 Noroeste 15 Noroeste 0 -- -- 73
2019-04-02 11:00:00 12.1 4 Sur 13 Sudeste 0 -- -- 86
2019-04-02 10:00:00 8.5 7 Sudeste 14 Sur 0 -- -- 99
2019-04-02 09:00:00 6.6 8 Sur 15 Sur 0 -- -- 98
2019-04-02 08:00:00 6.5 10 Sur 13 Sur 0 -- -- 98
2019-04-02 07:00:00 6.8 6 Sur 8 Sur 0 -- -- 98
2019-04-02 06:00:00 6.7 4 Sur 11 Sudeste 0 -- -- 97
2019-04-02 05:00:00 6.9 7 Sudeste 11 Sudeste 0 -- -- 96
2019-04-02 04:00:00 7.6 7 Sudeste 9 Sudeste 0 -- -- 96
2019-04-02 03:00:00 9 5 Sudeste 12 Este 0 -- -- 94
2019-04-02 02:00:00 9.5 7 Sudeste 10 Sudeste 0 -- -- 93
2019-04-02 01:00:00 10.4 8 Sudeste 14 Sudeste 0 -- -- 91
2019-04-02 00:00:00 10.6 9 Sudeste 16 Sudeste 0 -- -- 91
2019-04-01 23:00:00 10.7 8 Sudeste 10 Sudeste 0.2 -- -- 94
2019-04-01 22:00:00 11.3 4 Sur 6 Sur 0.4 -- -- 94
2019-04-01 21:00:00 11.2 0 Calma 8 Noroeste 2.8 -- -- 95
2019-04-01 20:00:00 11.3 7 Noroeste 22 Norte 3.4 -- -- 93
2019-04-01 19:00:00 13 8 Noroeste 20 Noroeste 0 -- -- 74
2019-04-01 18:00:00 13.9 14 Noroeste 26 Sur 0 -- -- 75
2019-04-01 17:00:00 16.1 21 Sudoeste 28 Sudoeste 0 -- -- 59
2019-04-01 16:00:00 19.2 9 Sudeste 23 Sudeste 0 -- -- 45
2019-04-01 15:00:00 18.8 10 Sudeste 22 Sudeste 0 -- -- 48
2019-04-01 14:00:00 18.9 7 Sur 17 Sudeste 0 -- -- 46
2019-04-01 13:00:00 16.3 6 Sudeste 15 Sudeste 0 -- -- 60
2019-04-01 12:00:00 15.8 10 Sudeste 17 Sudeste 0 -- -- 68
2019-04-01 11:00:00 13.4 8 Sur 18 Sur 0 -- -- 80
2019-04-01 10:00:00 12.6 8 Sudeste 12 Este 0 -- -- 87
2019-04-01 09:00:00 9.3 6 Sudeste 9 Sudeste 0 -- -- 96
2019-04-01 08:00:00 9.2 3 Sur 5 Sudeste 0 -- -- 96
2019-04-01 07:00:00 10.1 4 Sudeste 6 Sudeste 0 -- -- 95
2019-04-01 06:00:00 10.4 5 Sudeste 12 Sudeste 0 -- -- 95
2019-04-01 05:00:00 10.2 4 Sudeste 5 Sudeste 0 -- -- 96
2019-04-01 04:00:00 10.6 0 Calma 3 Sudoeste 0 -- -- 95
2019-04-01 03:00:00 11 2 Noroeste 5 Noroeste 0 -- -- 95
2019-04-01 02:00:00 11.4 2 Sudeste 6 Sudeste 0.2 -- -- 92
2019-04-01 01:00:00 11.6 3 Este 12 Sudeste 0 -- -- 89
2019-04-01 00:00:00 11.7 9 Este 26 Sudoeste 0 -- -- 85
2019-03-31 23:00:00 13.2 16 Sudoeste 30 Sudoeste 0.2 -- -- 68
2019-03-31 22:00:00 11.7 11 Oeste 19 Oeste 0.2 -- -- 87
2019-03-31 21:00:00 12 7 Oeste 15 Sudoeste 0.2 -- -- 86
2019-03-31 20:00:00 12.8 5 Sudeste 10 Sudoeste 0.4 -- -- 88
2019-03-31 19:00:00 12.7 5 Sur 23 Sudeste 1.2 -- -- 85
2019-03-31 18:00:00 12.6 20 Sur 37 Sudoeste 0 -- -- 81
2019-03-31 17:00:00 18.1 4 Oeste 23 Noroeste 0 -- -- 51
2019-03-31 16:00:00 18.8 12 Noroeste 21 Norte 0 -- -- 56
2019-03-31 15:00:00 19 6 Oeste 17 Oeste 0 -- -- 50
2019-03-31 14:00:00 17.8 8 Norte 13 Este 0 -- -- 57
2019-03-31 13:00:00 17.1 4 Noroeste 12 Este 0 -- -- 57
2019-03-31 12:00:00 14.8 5 Norte 13 Noroeste 0 -- -- 69
2019-03-31 11:00:00 13.9 3 Noroeste 9 Noroeste 0 -- -- 74
2019-03-31 10:00:00 11.5 2 Sudeste 9 Sur 0 -- -- 85
2019-03-31 09:00:00 8.1 5 Sudeste 7 Sudeste 0 -- -- 95
2019-03-31 08:00:00 8.3 4 Sudeste 12 Sur 0 -- -- 93
2019-03-31 07:00:00 7.7 7 Sudeste 9 Sudeste 0 -- -- 94
2019-03-31 06:00:00 8.5 5 Sudeste 8 Sudeste 0 -- -- 92
2019-03-31 05:00:00 10.4 3 Sur 23 Sur 0 -- -- 86
2019-03-31 03:00:00 10.9 4 Sudeste 14 Sur 0 -- -- 90
2019-03-31 01:00:00 10.8 8 Sur 11 Sur 0 -- -- 91
2019-03-31 00:00:00 10.6 3 Sur 8 Oeste 0 -- -- 92
2019-03-30 23:00:00 11.3 4 Noroeste 14 Noroeste 0 -- -- 88
2019-03-30 22:00:00 11.9 10 Norte 27 Oeste 0.2 -- -- 87
2019-03-30 21:00:00 12.1 17 Noroeste 25 Noroeste 0.8 -- -- 87
2019-03-30 20:00:00 13.7 5 Norte 42 Sur 0.8 -- -- 77
2019-03-30 19:00:00 20.1 4 Sur 19 Sudeste 0 -- -- 39
2019-03-30 18:00:00 22 8 Este 17 Sudeste 0 -- -- 34
2019-03-30 17:00:00 21.8 6 Sudeste 20 Sudeste 0 -- -- 34
2019-03-30 16:00:00 22.1 10 Este 22 Sudeste 0 -- -- 34
2019-03-30 15:00:00 21.9 13 Sudeste 29 Sudeste 0 -- -- 35
2019-03-30 14:00:00 20.7 13 Este 30 Este 0 -- -- 38
2019-03-30 13:00:00 19 12 Este 30 Sudeste 0 -- -- 43
2019-03-30 12:00:00 17.9 14 Sudeste 35 Este 0 -- -- 46
2019-03-30 11:00:00 15.9 20 Sudeste 31 Sudeste 0 -- -- 53
2019-03-30 10:00:00 13.8 19 Sudeste 30 Sudeste 0 -- -- 61
2019-03-30 09:00:00 12.2 13 Sudeste 21 Sudeste 0 -- -- 69
2019-03-30 08:00:00 9.9 11 Sudeste 17 Sur 0 -- -- 77
2019-03-30 07:00:00 10.1 5 Sur 14 Sur 0 -- -- 77
2019-03-30 06:00:00 10.7 10 Sudeste 24 Sur 0 -- -- 74
2019-03-30 05:00:00 10.8 11 Sudeste 17 Sudeste 0 -- -- 72
2019-03-30 04:00:00 10.9 5 Sudeste 21 Sudeste 0 -- -- 69
2019-03-30 03:00:00 12.3 10 Sudeste 17 Sudeste 0 -- -- 60
2019-03-30 02:00:00 12.1 8 Sudeste 15 Sudeste 0 -- -- 61
2019-03-30 01:00:00 11.4 7 Sudeste 13 Sudeste 0 -- -- 61
2019-03-30 00:00:00 11.6 7 Sudeste 14 Sudeste 0 -- -- 58
2019-03-29 23:00:00 11.1 8 Sur 12 Sur 0 -- -- 57
2019-03-29 22:00:00 12.1 7 Sur 13 Sudeste 0 -- -- 54
2019-03-29 21:00:00 14.4 9 Sudeste 13 Sudeste 0 -- -- 45
2019-03-29 20:00:00 16.2 7 Sudeste 10 Sudeste 0 -- -- 41
2019-03-29 19:00:00 20.9 3 Sudoeste 12 Sudoeste 0 -- -- 29
2019-03-29 18:00:00 21.6 5 Sudoeste 15 Sur 0 -- -- 25
2019-03-29 17:00:00 21.7 6 Sudeste 16 Sudeste 0 -- -- 25
2019-03-29 16:00:00 20.8 8 Este 24 Sudeste 0 -- -- 25
2019-03-29 15:00:00 20.6 7 Sudeste 23 Sudeste 0 -- -- 26
2019-03-29 14:00:00 19.1 10 Sudeste 26 Sur 0 -- -- 28
2019-03-29 13:00:00 18.1 17 Sudeste 27 Sudeste 0 -- -- 31
2019-03-29 12:00:00 17 17 Sudeste 37 Sudeste 0 -- -- 32
2019-03-29 11:00:00 15.6 19 Sudeste 36 Sudeste 0 -- -- 35
2019-03-29 10:00:00 13.6 18 Sudeste 30 Sudeste 0 -- -- 40
2019-03-29 09:00:00 11 15 Sudeste 24 Este 0 -- -- 51
2019-03-29 08:00:00 4.6 7 Sudeste 12 Sur 0 -- -- 75
2019-03-29 07:00:00 3 0 Calma 9 Sur 0 -- -- 81
2019-03-29 06:00:00 4.2 7 Sur 17 Sudeste 0 -- -- 77
2019-03-29 05:00:00 4 10 Sur 14 Sur 0 -- -- 76
2019-03-29 04:00:00 3.8 8 Sur 14 Sudeste 0 -- -- 72
2019-03-29 03:00:00 4.1 6 Sur 11 Sudeste 0 -- -- 69
2019-03-29 02:00:00 4.7 10 Sudeste 12 Sudeste 0 -- -- 65
2019-03-29 01:00:00 5.7 9 Sur 12 Sur 0 -- -- 61
2019-03-29 00:00:00 6.2 10 Sudeste 13 Sudeste 0 -- -- 62
2019-03-28 23:00:00 7.4 9 Sudeste 12 Sudeste 0 -- -- 59
2019-03-28 22:00:00 8.4 6 Sur 8 Sudeste 0 -- -- 56
2019-03-28 21:00:00 10.7 8 Sudeste 9 Sudeste 0 -- -- 50
2019-03-28 20:00:00 14.3 4 Sudeste 16 Sudeste 0 -- -- 38
2019-03-28 19:00:00 18.6 13 Sudeste 30 Sudeste 0 -- -- 23
2019-03-28 18:00:00 19.7 15 Sudeste 33 Sudeste 0 -- -- 22
2019-03-28 17:00:00 20.1 17 Sudeste 34 Sudeste 0 -- -- 21
2019-03-28 16:00:00 20.2 17 Sudeste 36 Sudeste 0 -- -- 18
2019-03-28 15:00:00 20.1 17 Sudeste 35 Sudeste 0 -- -- 17
2019-03-28 14:00:00 18.6 19 Sudeste 36 Sudeste 0 -- -- 26
2019-03-28 13:00:00 18.4 17 Este 36 Este 0 -- -- 30
2019-03-28 12:00:00 17.3 13 Este 29 Sudeste 0 -- -- 38
2019-03-28 11:00:00 15 14 Sudeste 26 Sudeste 0 -- -- 51
2019-03-28 10:00:00 13.2 14 Sudeste 23 Este 0 -- -- 60
2019-03-28 09:00:00 10.1 5 Sudeste 12 Este 0 -- -- 72
2019-03-28 08:00:00 3.1 5 Sudeste 8 Sudeste 0 -- -- 84
2019-03-28 07:00:00 1.9 7 Sudeste 9 Sudeste 0 -- -- 85
2019-03-28 06:00:00 2.3 6 Sudeste 9 Sudeste 0 -- -- 82
2019-03-28 05:00:00 2.7 8 Sudeste 9 Sudeste 0 -- -- 79
2019-03-28 04:00:00 4.6 5 Sur 10 Sudeste 0 -- -- 70
2019-03-28 03:00:00 6.9 5 Sudeste 17 Sudeste 0 -- -- 60
2019-03-28 02:00:00 6.5 9 Sudeste 17 Sudeste 0 -- -- 55
2019-03-28 01:00:00 8.8 10 Sudeste 25 Sudeste 0 -- -- 42
2019-03-28 00:00:00 7.4 12 Sudeste 14 Sudeste 0 -- -- 46
2019-03-27 23:00:00 9.9 12 Sur 20 Sudeste 0 -- -- 38
2019-03-27 22:00:00 14.2 0 Calma 9 Norte 0 -- -- 26
2019-03-27 21:00:00 14.7 4 Norte 11 Norte 0 -- -- 26
2019-03-27 20:00:00 17 4 Nordeste 24 Nordeste 0 -- -- 23
2019-03-27 19:00:00 19.4 12 Nordeste 31 Este 0 -- -- 21
2019-03-27 18:00:00 21 10 Nordeste 31 Este 0 -- -- 18
2019-03-27 17:00:00 21.7 15 Este 32 Nordeste 0 -- -- 17
2019-03-27 16:00:00 21.3 13 Este 36 Este 0 -- -- 19
2019-03-27 15:00:00 20.8 20 Este 46 Este 0 -- -- 17
2019-03-27 14:00:00 20 18 Nordeste 40 Este 0 -- -- 20
2019-03-27 13:00:00 18.8 19 Este 34 Nordeste 0 -- -- 24
2019-03-27 12:00:00 17.1 17 Nordeste 31 Nordeste 0 -- -- 30
2019-03-27 11:00:00 15.4 13 Este 22 Este 0 -- -- 37
2019-03-27 10:00:00 13.1 12 Nordeste 19 Norte 0 -- -- 51
2019-03-27 09:00:00 9.5 5 Noroeste 10 Noroeste 0 -- -- 78
2019-03-27 08:00:00 6.5 6 Sudeste 10 Sur 0 -- -- 84
2019-03-27 07:00:00 6.9 9 Sur 15 Sur 0 -- -- 78
2019-03-27 06:00:00 7 5 Sudeste 12 Sur 0 -- -- 83
2019-03-27 05:00:00 7.4 3 Sudeste 11 Sudeste 0 -- -- 79
2019-03-27 04:00:00 8.5 6 Sudeste 11 Sudeste 0 -- -- 73
2019-03-27 03:00:00 10.3 9 Sur 19 Sur 0 -- -- 65
2019-03-27 02:00:00 11.8 9 Sudeste 20 Sur -- -- -- 59
2019-03-27 01:00:00 12.8 15 Sur 22 Sur 0 -- -- 55
2019-03-27 00:00:00 15.4 11 Sudeste 24 Sudeste 0 -- -- 42